CheckWX is a tool to help pilots better visualize weather data.  It is not intended as a substitute for an official pre-flight weather briefing.

11:49:07 UTC

VTBU TAF
U-Tapao International Airport
Rayong, Thailand
TAF VTBU 031100Z 0312/0412 18008KT 9999 FEW020

Apr-3@
12:00 UTC

Apr-3 @ 12:00 UTC

Apr-4@
12:00 UTC

Apr-4 @ 12:00 UTC

TAF VTBU 031100Z 0312/0412 18008KT 9999 FEW020
Wind
  • 180° at 8 KTS
Cloud Levels
  • Few at 2,000' AGL